Time;durP1;ratioP1;P1;durP2;ratioP2;P2;SDS_P1;SDS_P2;PMS_P1;PMS_P2;Temp;Humidity;BMP_temperature;BMP_pressure;BME280_temperature;BME280_humidity;BME280_pressure;Samples;Min_cycle;Max_cycle;Signal;HPM_P1;HPM_P2
2022/02/20 00:01:04;;;;;;;66.43;59.20;;;;;;;1.99;100.00;101239.22;5030168;28;20049;-78
2022/02/20 00:03:31;;;;;;;91.90;65.75;;;;;;;2.41;100.00;101234.50;5021910;28;20061;-81
2022/02/20 00:06:04;;;;;;;88.68;65.55;;;;;;;2.46;100.00;101229.69;5024611;28;20445;-81
2022/02/20 00:08:32;;;;;;;96.15;67.78;;;;;;;1.96;100.00;101226.38;5019021;28;20054;-80
2022/02/20 00:10:59;;;;;;;83.93;64.63;;;;;;;2.19;100.00;101238.25;5029338;28;20049;-78
2022/02/20 00:13:26;;;;;;;87.57;64.43;;;;;;;2.60;100.00;101244.13;5031035;28;20115;-80
2022/02/20 00:15:55;;;;;;;89.38;69.60;;;;;;;2.14;100.00;101243.06;5031245;28;20086;-81
2022/02/20 00:18:27;;;;;;;90.88;70.03;;;;;;;2.33;100.00;101244.03;5027933;28;20147;-80
2022/02/20 00:20:54;;;;;;;120.80;81.25;;;;;;;2.36;100.00;101246.38;5024646;28;20061;-81
2022/02/20 00:23:21;;;;;;;90.25;70.35;;;;;;;2.14;100.00;101239.63;5029561;28;20049;-80
2022/02/20 00:25:54;;;;;;;92.32;69.65;;;;;;;2.17;100.00;101242.81;5023562;28;20535;-79
2022/02/20 00:28:21;;;;;;;81.80;68.88;;;;;;;2.08;100.00;101251.50;5017042;28;20057;-80
2022/02/20 00:30:49;;;;;;;70.32;62.72;;;;;;;2.23;100.00;101246.66;5025246;28;20111;-78
2022/02/20 00:33:23;;;;;;;67.68;60.92;;;;;;;1.87;100.00;101256.03;5036698;28;20065;-81
2022/02/20 00:35:55;;;;;;;68.25;57.60;;;;;;;2.09;100.00;101265.41;5034586;28;20470;-79
2022/02/20 00:38:22;;;;;;;70.40;63.63;;;;;;;2.19;100.00;101264.47;5028970;28;20105;-79
2022/02/20 00:40:56;;;;;;;66.32;59.78;;;;;;;2.28;100.00;101257.56;5022272;28;20304;-78
2022/02/20 00:43:23;;;;;;;66.05;59.38;;;;;;;2.28;100.00;101250.53;5025604;28;20049;-78
2022/02/20 00:45:52;;;;;;;71.45;63.72;;;;;;;2.35;100.00;101247.34;5017032;28;20049;-77
2022/02/20 00:48:20;;;;;;;81.60;66.13;;;;;;;2.45;100.00;101254.25;5023290;28;20042;-79
2022/02/20 00:50:52;;;;;;;76.78;63.20;;;;;;;2.66;100.00;101246.22;5029438;28;20140;-81
2022/02/20 00:53:19;;;;;;;74.82;62.13;;;;;;;2.75;100.00;101234.03;5025230;28;20049;-78
2022/02/20 00:55:48;;;;;;;72.57;65.22;;;;;;;3.03;100.00;101237.56;5032132;28;20544;-82
2022/02/20 00:58:17;;;;;;;63.53;56.00;;;;;;;2.97;100.00;101230.25;5021435;28;20050;-81
2022/02/20 01:00:56;;;;;;;68.18;61.20;;;;;;;3.40;100.00;101236.69;5017766;28;20115;-81
2022/02/20 01:03:23;;;;;;;68.97;61.63;;;;;;;2.92;100.00;101228.03;5022762;28;20486;-79
2022/02/20 01:05:51;;;;;;;71.80;64.53;;;;;;;2.69;100.00;101232.81;5023805;28;20053;-79
2022/02/20 01:08:19;;;;;;;73.47;66.15;;;;;;;2.72;100.00;101235.16;5033233;28;20045;-79
2022/02/20 01:10:46;;;;;;;85.80;72.03;;;;;;;2.70;100.00;101237.09;5023379;28;20107;-79
2022/02/20 01:13:17;;;;;;;91.00;70.50;;;;;;;2.61;100.00;101237.13;5025669;28;20541;-79
2022/02/20 01:15:44;;;;;;;74.43;66.68;;;;;;;3.02;100.00;101230.63;5033536;28;20058;-79
2022/02/20 01:18:13;;;;;;;68.15;62.03;;;;;;;2.80;100.00;101223.94;5017204;28;20454;-80
2022/02/20 01:20:42;;;;;;;64.72;58.08;;;;;;;2.86;100.00;101214.69;5020400;28;20181;-79
2022/02/20 01:23:10;;;;;;;64.28;57.47;;;;;;;2.95;100.00;101226.94;5018632;28;20131;-79
2022/02/20 01:25:47;;;;;;;68.55;61.50;;;;;;;3.18;100.00;101216.91;5027367;28;20046;-80
2022/02/20 01:28:14;;;;;;;71.47;62.97;;;;;;;3.07;100.00;101225.78;5020344;28;20054;-79
2022/02/20 01:30:46;;;;;;;70.70;63.08;;;;;;;2.95;100.00;101232.19;5018319;28;20053;-78
2022/02/20 01:33:17;;;;;;;74.05;67.32;;;;;;;2.83;100.00;101238.56;5032896;28;20053;-78
2022/02/20 01:35:44;;;;;;;74.00;66.90;;;;;;;2.88;100.00;101225.88;5020576;28;20085;-81
2022/02/20 01:38:15;;;;;;;70.75;63.72;;;;;;;2.77;100.00;101232.09;5024335;28;20049;-80
2022/02/20 01:40:43;;;;;;;69.43;62.53;;;;;;;2.79;100.00;101224.91;5027305;28;20458;-78
2022/02/20 01:43:12;;;;;;;72.22;65.75;;;;;;;2.91;100.00;101218.53;5025997;28;20057;-81
2022/02/20 01:45:42;;;;;;;78.25;68.18;;;;;;;2.77;100.00;101224.22;5017605;28;20453;-81
2022/02/20 01:48:11;;;;;;;71.53;64.25;;;;;;;2.56;100.00;101227.03;5025905;28;20119;-83
2022/02/20 01:50:38;;;;;;;65.30;58.92;;;;;;;2.44;100.00;101231.59;5030126;28;20046;-79
2022/02/20 01:53:13;;;;;;;71.15;64.03;;;;;;;2.87;100.00;101218.94;5021053;28;20053;-80
2022/02/20 01:55:44;;;;;;;75.03;68.05;;;;;;;2.74;100.00;101206.97;5028332;28;20050;-79
2022/02/20 01:58:11;;;;;;;71.60;65.47;;;;;;;2.76;100.00;101196.34;5024188;28;20101;-81
2022/02/20 02:00:40;;;;;;;73.18;66.10;;;;;;;2.82;100.00;101203.66;5031616;28;20115;-83
2022/02/20 02:03:07;;;;;;;72.90;65.57;;;;;;;3.03;100.00;101206.06;5017485;28;20050;-80
2022/02/20 02:05:43;;;;;;;68.45;61.90;;;;;;;3.30;100.00;101204.38;5020952;28;20120;-81
2022/02/20 02:08:11;;;;;;;66.60;60.38;;;;;;;2.86;100.00;101207.63;5029764;28;20138;-81
2022/02/20 02:10:38;;;;;;;67.03;60.75;;;;;;;2.92;100.00;101221.97;5026181;28;20069;-78
2022/02/20 02:13:11;;;;;;;68.07;62.40;;;;;;;2.93;100.00;101226.25;5022042;28;20462;-79
2022/02/20 02:16:01;;;;;;;69.70;63.78;;;;;;;3.17;100.00;101217.84;5021196;28;20057;-80
2022/02/20 02:18:29;;;;;;;67.95;60.95;;;;;;;3.24;100.00;101212.84;5019423;28;20119;-79
2022/02/20 02:20:59;;;;;;;66.22;60.55;;;;;;;3.36;100.00;101209.91;5015103;28;20058;-80
2022/02/20 02:23:34;;;;;;;67.68;61.45;;;;;;;3.53;100.00;101204.81;5018520;28;20053;-81
2022/02/20 02:26:01;;;;;;;67.47;61.70;;;;;;;3.62;100.00;101198.69;5023003;28;20046;-79
2022/02/20 02:28:30;;;;;;;63.38;57.80;;;;;;;3.72;100.00;101207.31;5033250;28;20445;-80
2022/02/20 02:30:58;;;;;;;60.55;55.10;;;;;;;3.42;100.00;101203.25;5026828;28;20049;-79
2022/02/20 02:33:32;;;;;;;63.97;59.13;;;;;;;3.77;100.00;101220.00;5030844;28;20057;-78
2022/02/20 02:36:00;;;;;;;65.20;59.75;;;;;;;3.37;100.00;101215.97;5020261;28;20140;-80
2022/02/20 02:38:29;;;;;;;66.28;60.63;;;;;;;3.58;100.00;101211.28;5030598;28;20046;-78
2022/02/20 02:41:00;;;;;;;66.88;61.25;;;;;;;3.59;100.00;101196.34;5032195;28;20127;-79
2022/02/20 02:43:27;;;;;;;60.88;56.08;;;;;;;3.58;100.00;101192.06;5023171;28;20053;-80
2022/02/20 02:45:55;;;;;;;60.40;56.03;;;;;;;3.51;100.00;101196.25;5030356;28;20057;-80
2022/02/20 02:48:24;;;;;;;57.25;52.78;;;;;;;3.43;100.00;101197.00;5023027;28;20474;-79
2022/02/20 02:50:53;;;;;;;54.50;50.80;;;;;;;3.75;100.00;101199.16;5020660;28;20050;-78
2022/02/20 02:53:22;;;;;;;58.55;54.63;;;;;;;3.59;100.00;101198.97;5027388;28;20050;-79
2022/02/20 02:55:52;;;;;;;56.47;52.55;;;;;;;3.76;100.00;101218.38;5018712;28;20457;-81
2022/02/20 02:58:23;;;;;;;56.53;52.95;;;;;;;3.16;100.00;101221.47;5021587;28;20099;-81
2022/02/20 03:06:17;;;;;;;62.67;58.28;;;;;;;3.88;100.00;101239.00;5002571;28;20136;-82
2022/02/20 03:08:44;;;;;;;61.63;56.88;;;;;;;3.94;100.00;101219.19;5004971;28;20532;-80
2022/02/20 03:11:13;;;;;;;61.47;56.97;;;;;;;3.85;100.00;101220.09;4996842;28;20058;-79
2022/02/20 03:13:49;;;;;;;58.05;53.83;;;;;;;3.79;100.00;101211.00;4995360;28;20050;-81
2022/02/20 03:16:16;;;;;;;61.58;57.05;;;;;;;3.69;100.00;101215.47;5009885;28;20041;-83
2022/02/20 03:18:44;;;;;;;58.92;54.53;;;;;;;3.95;100.00;101226.09;4995085;28;20109;-81
2022/02/20 03:21:12;;;;;;;60.55;56.60;;;;;;;3.67;100.00;101227.97;5003004;28;20545;-80
2022/02/20 03:23:39;;;;;;;53.63;49.53;;;;;;;3.42;100.00;101229.50;4999897;28;20061;-81
2022/02/20 03:26:06;;;;;;;47.45;44.40;;;;;;;3.66;100.00;101235.03;5006503;28;20100;-80
2022/02/20 03:28:33;;;;;;;47.25;43.78;;;;;;;3.92;100.00;101236.09;5008411;28;20076;-80
2022/02/20 03:31:03;;;;;;;48.42;44.78;;;;;;;3.87;100.00;101240.00;4998005;28;20462;-80
2022/02/20 03:33:30;;;;;;;48.05;44.53;;;;;;;3.24;100.00;101225.97;5003113;28;20054;-82
2022/02/20 03:35:57;;;;;;;49.67;45.92;;;;;;;3.60;100.00;101224.25;5004566;28;20042;-80
2022/02/20 03:38:24;;;;;;;50.75;46.90;;;;;;;3.61;100.00;101221.50;4986098;28;20050;-80
2022/02/20 03:40:51;;;;;;;50.05;46.65;;;;;;;3.73;100.00;101223.91;4997206;28;20053;-79
2022/02/20 03:43:19;;;;;;;52.75;49.13;;;;;;;3.77;100.00;101223.47;4995992;28;20062;-82
2022/02/20 03:45:47;;;;;;;49.00;45.50;;;;;;;3.60;100.00;101225.09;4988702;28;20046;-81
2022/02/20 03:48:18;;;;;;;48.17;44.40;;;;;;;3.54;100.00;101224.84;5001003;28;20046;-82
2022/02/20 03:50:44;;;;;;;50.05;46.47;;;;;;;3.32;100.00;101226.09;5011605;28;20062;-80
2022/02/20 03:53:11;;;;;;;42.92;39.67;;;;;;;3.57;100.00;101235.06;5008955;28;20124;-80
2022/02/20 03:55:39;;;;;;;46.97;43.75;;;;;;;3.42;100.00;101235.56;5006444;28;20146;-82
2022/02/20 03:58:06;;;;;;;47.67;44.65;;;;;;;3.42;100.00;101238.19;5014361;28;20100;-80
2022/02/20 04:00:33;;;;;;;55.88;51.60;;;;;;;3.49;100.00;101238.44;4998448;28;20495;-81
2022/02/20 04:03:02;;;;;;;52.47;48.53;;;;;;;3.46;100.00;101230.84;4993575;28;20042;-83
2022/02/20 04:05:42;;;;;;;50.20;46.80;;;;;;;3.41;100.00;101235.72;4998183;28;20148;-82
2022/02/20 04:08:09;;;;;;;50.50;46.90;;;;;;;3.32;100.00;101234.78;5008746;28;20046;-81
2022/02/20 04:10:36;;;;;;;53.45;49.88;;;;;;;3.56;100.00;101231.59;5008790;28;20046;-82
2022/02/20 04:13:03;;;;;;;49.17;45.53;;;;;;;3.63;100.00;101235.31;5003144;28;20120;-82
2022/02/20 04:15:30;;;;;;;48.90;45.28;;;;;;;3.59;100.00;101228.69;5003484;28;20051;-81
2022/02/20 04:17:57;;;;;;;52.70;49.00;;;;;;;3.58;100.00;101229.66;5001810;28;20054;-79
2022/02/20 04:20:31;;;;;;;50.15;47.03;;;;;;;3.56;100.00;101238.66;5002132;28;20474;-79
2022/02/20 04:23:00;;;;;;;46.50;43.42;;;;;;;3.74;100.00;101244.78;4998766;28;20054;-80
2022/02/20 04:25:27;;;;;;;51.33;47.70;;;;;;;3.74;100.00;101250.03;4989912;28;20084;-81
2022/02/20 04:27:55;;;;;;;46.40;43.35;;;;;;;3.65;100.00;101253.53;5003973;28;20080;-79
2022/02/20 04:30:29;;;;;;;46.35;43.35;;;;;;;3.96;100.00;101259.28;5014002;28;20082;-81
2022/02/20 04:32:57;;;;;;;45.80;42.53;;;;;;;4.09;100.00;101257.13;5001518;28;20371;-80
2022/02/20 04:35:24;;;;;;;45.33;42.13;;;;;;;4.05;100.00;101242.59;5007487;28;20132;-81
2022/02/20 04:37:53;;;;;;;43.28;40.15;;;;;;;4.02;100.00;101236.81;5006025;28;20105;-80
2022/02/20 04:40:21;;;;;;;49.45;46.17;;;;;;;4.00;100.00;101236.19;5002673;28;20089;-81
2022/02/20 04:42:51;;;;;;;46.50;43.53;;;;;;;3.46;100.00;101237.91;5013315;28;20540;-82
2022/02/20 04:45:18;;;;;;;47.83;44.42;;;;;;;3.54;100.00;101244.09;5001594;28;20054;-81
2022/02/20 04:47:46;;;;;;;53.45;49.40;;;;;;;3.51;100.00;101260.13;5007127;28;20383;-80
2022/02/20 04:50:15;;;;;;;50.58;46.53;;;;;;;3.62;100.00;101269.59;5009406;28;20100;-82
2022/02/20 04:52:41;;;;;;;43.95;40.72;;;;;;;3.51;100.00;101269.78;5004628;28;20050;-80
2022/02/20 04:55:10;;;;;;;44.42;41.05;;;;;;;3.53;100.00;101266.06;5006142;28;20449;-80
2022/02/20 04:57:41;;;;;;;48.20;44.72;;;;;;;3.60;100.00;101274.16;5006683;28;20046;-81
2022/02/20 05:00:11;;;;;;;46.13;42.65;;;;;;;3.80;100.00;101269.63;5002909;28;20112;-81
2022/02/20 05:02:38;;;;;;;46.70;43.33;;;;;;;3.59;100.00;101270.72;5004729;28;20046;-79
2022/02/20 05:05:07;;;;;;;50.53;46.72;;;;;;;3.70;100.00;101268.88;5010341;28;20449;-80
2022/02/20 05:07:34;;;;;;;47.25;43.60;;;;;;;3.82;100.00;101278.22;5002670;28;20438;-80
2022/02/20 05:10:01;;;;;;;50.28;46.47;;;;;;;3.73;100.00;101282.53;4995928;28;20042;-80
2022/02/20 05:12:28;;;;;;;46.53;42.92;;;;;;;3.48;100.00;101285.84;5006853;28;20058;-79
2022/02/20 05:14:57;;;;;;;45.03;41.60;;;;;;;3.72;100.00;101295.81;5006537;28;20536;-80
2022/02/20 05:17:24;;;;;;;57.95;52.15;;;;;;;3.57;100.00;101292.84;4998934;28;20054;-82
2022/02/20 05:19:51;;;;;;;57.60;52.08;;;;;;;3.56;100.00;101302.53;5008504;28;20046;-81
2022/02/20 05:22:18;;;;;;;51.30;46.97;;;;;;;3.80;100.00;101298.53;5001734;28;20054;-82
2022/02/20 05:24:45;;;;;;;56.58;51.83;;;;;;;3.82;100.00;101299.22;4999507;28;20054;-80
2022/02/20 05:27:15;;;;;;;49.63;45.72;;;;;;;3.78;100.00;101306.59;5007035;28;20046;-83
2022/02/20 05:29:44;;;;;;;47.97;43.80;;;;;;;3.85;100.00;101305.00;4981422;28;20055;-81
2022/02/20 05:32:23;;;;;;;46.08;42.13;;;;;;;3.84;100.00;101316.50;4987327;28;20050;-82
2022/02/20 05:34:50;;;;;;;49.08;45.30;;;;;;;3.78;100.00;101317.09;4998858;28;20112;-80
2022/02/20 05:37:17;;;;;;;51.35;47.22;;;;;;;3.54;100.00;101319.41;5001025;28;20047;-82
2022/02/20 05:39:46;;;;;;;49.10;44.05;;;;;;;3.26;100.00;101329.06;5005271;28;20050;-81
2022/02/20 05:42:13;;;;;;;47.20;43.05;;;;;;;3.76;100.00;101326.91;5000183;28;20047;-80
2022/02/20 05:44:41;;;;;;;48.53;44.63;;;;;;;3.88;100.00;101327.56;4993216;28;20046;-82
2022/02/20 05:47:09;;;;;;;50.83;46.88;;;;;;;3.77;100.00;101333.00;4998886;28;20105;-80
2022/02/20 05:49:39;;;;;;;53.00;48.65;;;;;;;3.80;100.00;101327.44;5006517;28;20467;-80
2022/02/20 05:52:06;;;;;;;52.38;47.80;;;;;;;3.78;100.00;101324.97;4997203;28;20110;-80
2022/02/20 05:54:33;;;;;;;55.20;49.63;;;;;;;3.83;100.00;101332.41;4993009;28;20056;-78
2022/02/20 05:57:06;;;;;;;56.72;50.58;;;;;;;3.98;100.00;101333.56;4999793;28;20042;-79
2022/02/20 05:59:34;;;;;;;55.65;50.38;;;;;;;3.98;100.00;101336.19;4997562;28;20054;-79
2022/02/20 06:02:04;;;;;;;55.90;50.75;;;;;;;4.12;100.00;101325.19;5000824;28;20046;-82
2022/02/20 06:04:31;;;;;;;54.53;49.42;;;;;;;3.71;100.00;101326.53;5012365;28;20410;-80
2022/02/20 06:06:59;;;;;;;57.55;52.10;;;;;;;3.81;100.00;101319.44;4994256;28;20980;-82
2022/02/20 06:09:26;;;;;;;60.80;55.63;;;;;;;4.13;100.00;101326.00;4997850;28;20046;-80
2022/02/20 06:11:53;;;;;;;53.53;48.35;;;;;;;4.16;100.00;101327.50;5003299;28;20503;-82
2022/02/20 06:14:21;;;;;;;55.88;50.22;;;;;;;4.24;100.00;101323.16;5004818;28;20050;-81
2022/02/20 06:16:50;;;;;;;55.47;50.08;;;;;;;4.17;100.00;101329.97;4997262;28;20458;-81
2022/02/20 06:19:17;;;;;;;51.75;46.92;;;;;;;3.92;100.00;101325.44;5001137;28;20065;-79
2022/02/20 06:21:44;;;;;;;54.20;49.20;;;;;;;3.86;100.00;101337.38;4998037;28;20486;-80
2022/02/20 06:24:12;;;;;;;53.60;48.15;;;;;;;4.06;100.00;101336.28;4991628;28;20049;-79
2022/02/20 06:26:39;;;;;;;57.08;51.90;;;;;;;4.34;100.00;101352.84;5002318;28;20466;-80
2022/02/20 06:29:06;;;;;;;51.78;47.50;;;;;;;4.70;100.00;101344.13;4990508;28;20128;-79
2022/02/20 06:31:34;;;;;;;51.05;46.97;;;;;;;4.57;100.00;101340.06;5000069;28;20105;-81
2022/02/20 06:34:02;;;;;;;49.60;45.47;;;;;;;4.81;100.00;101349.13;5000909;28;20050;-80
2022/02/20 06:36:29;;;;;;;52.00;47.83;;;;;;;4.84;100.00;101346.19;5005329;28;20057;-80
2022/02/20 06:38:57;;;;;;;47.08;43.17;;;;;;;4.98;100.00;101350.09;4987343;28;20046;-79
2022/02/20 06:41:32;;;;;;;43.75;40.63;;;;;;;4.90;100.00;101360.53;5005151;28;20083;-80
2022/02/20 06:43:59;;;;;;;41.90;38.83;;;;;;;4.78;100.00;101359.97;4990039;28;20046;-80
2022/02/20 06:46:29;;;;;;;43.35;40.17;;;;;;;4.85;100.00;101366.28;4993919;28;20107;-81
2022/02/20 06:48:56;;;;;;;46.17;42.53;;;;;;;4.93;100.00;101366.34;4994331;28;20481;-80
2022/02/20 06:51:23;;;;;;;43.55;40.25;;;;;;;5.02;100.00;101369.84;4994951;28;20113;-80
2022/02/20 06:53:50;;;;;;;43.30;39.85;;;;;;;5.16;100.00;101379.00;4991250;28;20071;-79
2022/02/20 06:56:17;;;;;;;40.53;37.33;;;;;;;5.23;100.00;101374.78;4991946;28;20484;-80
2022/02/20 06:58:46;;;;;;;46.08;42.05;;;;;;;5.32;100.00;101370.38;4992380;28;20454;-79
2022/02/20 07:01:13;;;;;;;53.30;47.97;;;;;;;5.43;100.00;101373.59;4991941;28;20109;-80
2022/02/20 07:03:40;;;;;;;50.67;46.28;;;;;;;5.44;100.00;101369.13;4999592;28;20102;-80
2022/02/20 07:06:08;;;;;;;57.50;52.78;;;;;;;5.46;100.00;101362.72;4993249;28;20063;-79
2022/02/20 07:08:34;;;;;;;60.15;53.90;;;;;;;5.54;100.00;101355.84;4990055;28;20046;-79
2022/02/20 07:11:01;;;;;;;58.63;52.60;;;;;;;5.73;100.00;101359.06;4989081;28;20467;-81
2022/02/20 07:13:29;;;;;;;80.10;70.13;;;;;;;5.81;100.00;101350.38;4996890;28;20050;-79
2022/02/20 07:15:59;;;;;;;87.30;78.05;;;;;;;6.00;100.00;101341.41;4995618;28;20041;-83
2022/02/20 07:18:27;;;;;;;86.97;78.15;;;;;;;5.97;100.00;101345.19;5003192;28;20042;-82
2022/02/20 07:20:55;;;;;;;79.50;71.55;;;;;;;6.03;100.00;101337.63;4988784;28;20455;-82
2022/02/20 07:23:23;;;;;;;89.57;79.78;;;;;;;6.04;100.00;101341.91;4984402;28;20477;-80
2022/02/20 07:25:53;;;;;;;92.20;82.20;;;;;;;5.85;100.00;101341.16;4997307;28;20099;-80
2022/02/20 07:28:22;;;;;;;95.97;85.88;;;;;;;5.91;100.00;101343.16;4996482;28;20490;-80
2022/02/20 07:30:49;;;;;;;98.13;87.47;;;;;;;5.81;100.00;101350.38;4988532;28;20130;-81
2022/02/20 07:33:21;;;;;;;84.30;75.65;;;;;;;6.02;100.00;101359.69;4959608;28;20404;-80
2022/02/20 07:35:49;;;;;;;73.88;67.13;;;;;;;5.72;100.00;101357.44;4974353;28;20388;-81
2022/02/20 07:38:17;;;;;;;71.75;65.38;;;;;;;5.98;100.00;101346.00;4972222;28;20125;-82
2022/02/20 07:40:45;;;;;;;64.25;59.10;;;;;;;6.24;100.00;101353.00;4968460;28;20055;-80
2022/02/20 07:43:11;;;;;;;75.50;69.22;;;;;;;6.36;100.00;101354.34;4967042;28;20039;-82
2022/02/20 07:45:40;;;;;;;66.78;61.25;;;;;;;6.63;100.00;101350.59;4973864;28;20046;-80
2022/02/20 07:48:09;;;;;;;77.55;70.72;;;;;;;6.81;100.00;101350.44;4978115;28;20539;-82
2022/02/20 07:50:39;;;;;;;78.47;71.07;;;;;;;6.92;100.00;101354.53;4981434;28;20043;-80
2022/02/20 07:53:07;;;;;;;88.63;78.53;;;;;;;6.77;100.00;101354.38;4983845;28;20121;-79
2022/02/20 07:55:34;;;;;;;85.13;76.85;;;;;;;7.06;100.00;101345.94;4972379;28;20412;-79
2022/02/20 07:58:02;;;;;;;79.05;71.90;;;;;;;7.17;100.00;101335.03;4981354;28;20108;-80
2022/02/20 08:00:30;;;;;;;87.65;78.40;;;;;;;7.17;100.00;101324.47;4981217;28;20043;-80
2022/02/20 08:02:57;;;;;;;85.82;77.13;;;;;;;7.19;100.00;101321.63;4980392;28;20133;-81
2022/02/20 08:05:24;;;;;;;83.10;74.72;;;;;;;7.46;100.00;101317.75;4971872;28;20562;-80
2022/02/20 08:07:53;;;;;;;82.65;74.10;;;;;;;7.54;100.00;101299.25;4983713;28;20109;-82
2022/02/20 08:10:20;;;;;;;75.00;67.95;;;;;;;7.61;100.00;101300.19;4987980;28;20047;-81
2022/02/20 08:12:47;;;;;;;78.28;71.47;;;;;;;7.59;100.00;101302.16;4981335;28;20058;-80
2022/02/20 08:15:14;;;;;;;88.63;79.53;;;;;;;7.87;100.00;101294.63;4971389;28;20082;-81
2022/02/20 08:17:44;;;;;;;88.50;79.30;;;;;;;7.84;100.00;101291.47;4974488;28;20116;-80
2022/02/20 08:20:14;;;;;;;81.32;73.30;;;;;;;9.23;100.00;101307.09;4991922;28;20089;-84
2022/02/20 08:22:43;;;;;;;76.63;69.32;;;;;;;8.74;100.00;101304.09;4976180;28;20046;-82
2022/02/20 08:25:12;;;;;;;83.20;75.07;;;;;;;8.19;100.00;101304.16;4979358;28;20042;-81
2022/02/20 08:27:41;;;;;;;74.63;68.07;;;;;;;8.06;100.00;101316.34;4986624;28;20047;-81
2022/02/20 08:30:11;;;;;;;70.63;64.72;;;;;;;8.04;100.00;101319.13;4982997;28;20059;-82
2022/02/20 08:32:45;;;;;;;72.97;66.53;;;;;;;8.28;100.00;101320.81;4982057;28;20442;-82
2022/02/20 08:35:14;;;;;;;70.22;64.20;;;;;;;8.06;100.00;101321.63;4960190;28;20126;-81
2022/02/20 08:37:45;;;;;;;72.28;65.82;;;;;;;7.86;100.00;101308.81;4985982;28;20051;-80
2022/02/20 08:40:18;;;;;;;74.20;67.43;;;;;;;8.43;100.00;101308.47;4963420;28;20142;-80
2022/02/20 08:42:45;;;;;;;;;;;;;;;8.27;100.00;101309.41;4977919;28;20046;-79
2022/02/20 08:45:16;;;;;;;67.07;61.00;;;;;;;8.05;100.00;101304.94;4978753;28;20394;-81
2022/02/20 08:47:44;;;;;;;68.03;61.90;;;;;;;8.03;100.00;101297.16;4977085;28;20043;-80
2022/02/20 08:50:13;;;;;;;74.28;67.20;;;;;;;8.48;100.00;101295.53;4982094;28;20090;-80
2022/02/20 08:52:45;;;;;;;74.70;68.03;;;;;;;8.59;100.00;101286.34;4983372;28;20054;-80
2022/02/20 08:55:14;;;;;;;76.50;69.45;;;;;;;8.73;100.00;101278.63;4985861;28;20467;-81
2022/02/20 08:57:43;;;;;;;71.53;65.03;;;;;;;8.49;100.00;101281.28;4981441;28;20051;-81
2022/02/20 09:00:12;;;;;;;71.85;65.10;;;;;;;8.33;100.00;101273.47;4981071;28;20042;-80
2022/02/20 09:02:45;;;;;;;73.55;66.68;;;;;;;8.92;100.00;101265.66;4976581;28;20051;-80
2022/02/20 09:05:13;;;;;;;76.93;70.03;;;;;;;9.01;100.00;101255.00;4972938;28;20130;-80
2022/02/20 09:07:41;;;;;;;87.43;79.38;;;;;;;8.70;100.00;101242.72;4985162;28;20057;-82
2022/02/20 09:10:09;;;;;;;86.32;78.70;;;;;;;8.59;100.00;101237.88;4979431;28;20435;-79
2022/02/20 09:12:40;;;;;;;96.00;86.70;;;;;;;9.17;100.00;101241.56;4980588;28;20046;-81
2022/02/20 09:15:09;;;;;;;76.45;69.43;;;;;;;9.24;100.00;101242.47;4980986;28;20565;-79
2022/02/20 09:17:37;;;;;;;72.40;66.10;;;;;;;9.48;96.87;101238.69;4978793;28;20051;-80
2022/02/20 09:20:05;;;;;;;79.30;71.88;;;;;;;9.38;99.13;101241.66;4978777;28;20039;-82
2022/02/20 09:22:38;;;;;;;82.55;74.95;;;;;;;9.84;97.88;101235.22;4973582;28;20047;-80
2022/02/20 09:25:05;;;;;;;89.97;80.32;;;;;;;9.82;94.66;101232.75;4925655;28;20064;-81
2022/02/20 09:27:32;;;;;;;89.05;80.35;;;;;;;9.94;98.04;101237.56;4979001;28;20076;-82
2022/02/20 09:30:01;;;;;;;95.50;86.13;;;;;;;9.95;97.98;101247.16;4975216;28;20070;-82
2022/02/20 09:32:33;;;;;;;93.38;83.93;;;;;;;10.54;92.70;101245.06;4972195;28;20050;-82
2022/02/20 09:35:02;;;;;;;81.72;74.93;;;;;;;9.77;94.57;101250.22;4977371;28;20054;-80
2022/02/20 09:37:29;;;;;;;109.57;84.63;;;;;;;9.79;96.81;101251.69;4981786;28;20047;-83
2022/02/20 09:39:56;;;;;;;84.60;76.00;;;;;;;11.51;90.71;101245.22;4975410;28;20491;-80
2022/02/20 09:42:29;;;;;;;77.60;70.57;;;;;;;11.89;85.66;101241.06;4976258;28;20487;-82
2022/02/20 09:45:06;;;;;;;86.20;77.32;;;;;;;11.69;81.23;101240.97;4975402;28;20047;-81
2022/02/20 09:47:37;;;;;;;91.38;82.18;;;;;;;11.07;82.22;101236.63;4978346;28;20043;-81
2022/02/20 09:50:06;;;;;;;106.93;92.38;;;;;;;11.55;85.80;101235.81;4984589;28;20162;-80
2022/02/20 09:52:33;;;;;;;81.18;73.43;;;;;;;12.21;81.72;101230.66;4978563;28;20074;-81
2022/02/20 09:55:07;;;;;;;86.40;78.10;;;;;;;11.00;79.39;101235.75;4989285;28;20054;-82
2022/02/20 09:57:34;;;;;;;87.68;79.75;;;;;;;13.70;81.55;101227.22;4993698;28;20062;-81
2022/02/20 10:00:10;;;;;;;79.38;72.30;;;;;;;13.17;72.38;101221.31;4979947;28;20046;-80
2022/02/20 10:02:46;;;;;;;73.60;67.20;;;;;;;12.66;76.29;101230.03;4978234;28;20043;-83
2022/02/20 10:05:22;;;;;;;75.93;69.03;;;;;;;12.21;72.52;101227.97;4974012;28;20061;-83
2022/02/20 10:07:51;;;;;;;79.63;71.95;;;;;;;12.10;76.40;101221.44;4984218;28;20057;-80
2022/02/20 10:10:27;;;;;;;83.90;76.05;;;;;;;12.29;78.00;101222.47;4972410;28;20459;-83
2022/02/20 10:12:59;;;;;;;82.97;75.78;;;;;;;13.46;75.79;101218.13;4975899;28;20059;-83
2022/02/20 10:15:30;;;;;;;87.28;79.68;;;;;;;11.66;75.20;101220.09;4983648;28;20064;-80
2022/02/20 10:18:11;;;;;;;86.90;79.35;;;;;;;12.40;74.06;101215.69;4971711;28;20131;-83
2022/02/20 10:20:40;;;;;;;93.75;85.15;;;;;;;11.96;77.10;101213.63;4982702;28;20153;-83
2022/02/20 10:23:08;;;;;;;90.57;82.30;;;;;;;11.59;76.34;101211.28;4972356;28;20043;-79
2022/02/20 10:25:35;;;;;;;80.95;73.68;;;;;;;10.96;76.42;101216.75;4983539;28;20042;-80
2022/02/20 10:28:06;;;;;;;82.22;74.22;;;;;;;11.56;77.29;101206.34;4974798;28;20067;-83
2022/02/20 10:30:36;;;;;;;85.18;76.55;;;;;;;11.45;77.46;101214.91;4979989;28;20059;-83
2022/02/20 10:33:10;;;;;;;88.05;79.57;;;;;;;11.79;76.59;101213.16;4985171;28;20061;-79
2022/02/20 10:35:46;;;;;;;87.97;79.05;;;;;;;10.95;77.85;101219.56;4978758;28;20078;-78
2022/02/20 10:38:16;;;;;;;92.20;83.53;;;;;;;10.59;79.19;101225.06;4978553;28;20055;-83
2022/02/20 10:40:44;;;;;;;132.98;91.55;;;;;;;10.41;79.95;101228.19;4981549;28;20113;-80
2022/02/20 10:43:25;;;;;;;86.07;77.90;;;;;;;10.21;83.68;101228.84;4969115;28;20046;-79
2022/02/20 10:46:06;;;;;;;83.47;75.07;;;;;;;10.11;81.24;101224.88;4980711;28;20478;-79
2022/02/20 10:48:39;;;;;;;88.32;79.10;;;;;;;10.46;85.89;101228.44;4977649;28;20061;-78
2022/02/20 10:51:14;;;;;;;87.78;78.22;;;;;;;10.83;82.40;101211.31;4977499;28;20054;-82
2022/02/20 10:53:50;;;;;;;93.85;84.72;;;;;;;10.41;82.22;101212.25;4978193;28;20241;-83
2022/02/20 10:56:18;;;;;;;94.28;84.90;;;;;;;10.92;82.63;101204.03;4970804;28;20090;-80
2022/02/20 10:58:46;;;;;;;89.55;80.75;;;;;;;10.90;82.09;101206.88;4976631;28;20522;-82
2022/02/20 11:01:22;;;;;;;63.25;57.20;;;;;;;10.98;82.86;101204.09;4978166;28;20043;-83
2022/02/20 11:03:50;;;;;;;57.28;51.92;;;;;;;11.37;82.08;101191.13;4982332;28;20043;-82
2022/02/20 11:06:19;;;;;;;79.07;61.80;;;;;;;11.21;83.39;101190.47;4982570;28;20451;-82
2022/02/20 11:08:45;;;;;;;57.05;51.92;;;;;;;11.30;82.03;101196.44;4981981;28;20455;-81
2022/02/20 11:13:56;;;;;;;56.33;51.00;;;;;;;11.33;82.00;101189.91;4977860;28;20047;-80
2022/02/20 11:16:24;;;;;;;52.00;46.83;;;;;;;11.17;81.27;101183.09;4990767;28;20046;-80
2022/02/20 11:18:54;;;;;;;52.15;47.22;;;;;;;11.54;83.70;101179.13;4976652;28;20061;-81
2022/02/20 11:21:23;;;;;;;53.83;49.70;;;;;;;11.30;80.64;101171.69;4983159;28;20047;-81
2022/02/20 11:23:52;;;;;;;50.53;46.25;;;;;;;11.52;81.21;101170.50;4980184;28;20144;-83
2022/02/20 11:26:19;;;;;;;52.30;47.88;;;;;;;11.76;80.09;101170.97;4986736;28;20132;-81